Terminal Aerodrome Forecast
Issued by NWS

Current Version | Previous Version | Text Only | Print | Product List | Glossary On
Versions: 1 2 3 4 5 6 7 8 9 10 11 12 13 14 15 16 17 18 19 20
000
FTUS46 KLOX 261137
TAFPRB
TAF
KPRB 261137Z 2612/2712 31008KT P6SM BKN009
     FM261500 VRB03KT P6SM SCT016
     FM261800 31008KT P6SM SKC
     FM262200 24014KT P6SM SKC
     FM270400 29008KT P6SM SKC
     FM270900 VRB03KT P6SM BKN010=

USA.gov is the U.S. government's official web portal to all federal, state and local government web resources and services.